sensor_id;sensor_type;location;lat;lon;timestamp;pressure;altitude;pressure_sealevel;temperature;humidity
11268;BME280;49397;47.474;9.416;2023-02-12T00:02:18;97271.47;;;-0.07;73.69
11268;BME280;49397;47.474;9.416;2023-02-12T00:04:43;97269.59;;;-0.06;73.80
11268;BME280;49397;47.474;9.416;2023-02-12T00:07:09;97268.59;;;-0.05;73.62
11268;BME280;49397;47.474;9.416;2023-02-12T00:09:35;97267.78;;;0.01;73.16
11268;BME280;49397;47.474;9.416;2023-02-12T00:12:01;97268.00;;;-0.01;73.48
11268;BME280;49397;47.474;9.416;2023-02-12T00:14:27;97265.56;;;0.05;72.55
11268;BME280;49397;47.474;9.416;2023-02-12T00:16:53;97257.06;;;-0.12;73.33
11268;BME280;49397;47.474;9.416;2023-02-12T00:19:18;97256.03;;;-0.18;73.49
11268;BME280;49397;47.474;9.416;2023-02-12T00:21:44;97260.91;;;-0.28;74.44
11268;BME280;49397;47.474;9.416;2023-02-12T00:24:09;97255.38;;;-0.26;74.27
11268;BME280;49397;47.474;9.416;2023-02-12T00:26:35;97253.56;;;-0.19;72.16
11268;BME280;49397;47.474;9.416;2023-02-12T00:29:00;97266.69;;;-0.18;72.31
11268;BME280;49397;47.474;9.416;2023-02-12T00:31:28;97260.34;;;-0.17;73.12
11268;BME280;49397;47.474;9.416;2023-02-12T00:33:54;97265.28;;;-0.07;73.01
11268;BME280;49397;47.474;9.416;2023-02-12T00:36:22;97241.44;;;-0.22;72.17
11268;BME280;49397;47.474;9.416;2023-02-12T00:38:50;97257.03;;;-0.19;72.74
11268;BME280;49397;47.474;9.416;2023-02-12T00:41:16;97260.28;;;-0.30;73.45
11268;BME280;49397;47.474;9.416;2023-02-12T00:43:42;97267.06;;;-0.27;72.83
11268;BME280;49397;47.474;9.416;2023-02-12T00:46:07;97275.06;;;-0.27;73.10
11268;BME280;49397;47.474;9.416;2023-02-12T00:48:33;97261.91;;;-0.35;72.74
11268;BME280;49397;47.474;9.416;2023-02-12T00:50:59;97260.03;;;-0.41;73.09
11268;BME280;49397;47.474;9.416;2023-02-12T00:53:25;97268.28;;;-0.30;72.72
11268;BME280;49397;47.474;9.416;2023-02-12T00:55:51;97256.78;;;-0.37;73.10
11268;BME280;49397;47.474;9.416;2023-02-12T00:58:16;97267.47;;;-0.30;73.46
11268;BME280;49397;47.474;9.416;2023-02-12T01:00:42;97264.00;;;-0.24;72.83
11268;BME280;49397;47.474;9.416;2023-02-12T01:03:08;97262.50;;;-0.33;74.12
11268;BME280;49397;47.474;9.416;2023-02-12T01:05:34;97256.41;;;-0.27;73.19
11268;BME280;49397;47.474;9.416;2023-02-12T01:08:00;97259.06;;;-0.27;73.50
11268;BME280;49397;47.474;9.416;2023-02-12T01:10:26;97263.53;;;-0.34;73.85
11268;BME280;49397;47.474;9.416;2023-02-12T01:12:52;97261.31;;;-0.31;73.23
11268;BME280;49397;47.474;9.416;2023-02-12T01:15:18;97255.13;;;-0.31;73.19
11268;BME280;49397;47.474;9.416;2023-02-12T01:17:44;97251.47;;;-0.30;73.47
11268;BME280;49397;47.474;9.416;2023-02-12T01:20:15;97252.03;;;-0.41;73.59
11268;BME280;49397;47.474;9.416;2023-02-12T01:22:42;97247.91;;;-0.44;74.00
11268;BME280;49397;47.474;9.416;2023-02-12T01:25:07;97249.53;;;-0.43;73.86
11268;BME280;49397;47.474;9.416;2023-02-12T01:27:33;97257.53;;;-0.43;73.83
11268;BME280;49397;47.474;9.416;2023-02-12T01:29:59;97256.50;;;-0.48;73.22
11268;BME280;49397;47.474;9.416;2023-02-12T01:32:24;97248.69;;;-0.50;73.63
11268;BME280;49397;47.474;9.416;2023-02-12T01:34:50;97238.22;;;-0.51;73.76
11268;BME280;49397;47.474;9.416;2023-02-12T01:37:15;97223.47;;;-0.47;74.09
11268;BME280;49397;47.474;9.416;2023-02-12T01:39:41;97235.38;;;-0.50;74.12
11268;BME280;49397;47.474;9.416;2023-02-12T01:42:11;97236.59;;;-0.52;74.17
11268;BME280;49397;47.474;9.416;2023-02-12T01:45:16;97238.03;;;-0.50;74.16
11268;BME280;49397;47.474;9.416;2023-02-12T01:47:30;97231.66;;;-0.49;73.07
11268;BME280;49397;47.474;9.416;2023-02-12T01:49:56;97231.91;;;-0.44;73.27
11268;BME280;49397;47.474;9.416;2023-02-12T01:52:27;97227.41;;;-0.43;73.48
11268;BME280;49397;47.474;9.416;2023-02-12T01:54:58;97235.84;;;-0.40;74.17
11268;BME280;49397;47.474;9.416;2023-02-12T01:57:26;97241.59;;;-0.30;73.78
11268;BME280;49397;47.474;9.416;2023-02-12T01:59:53;97249.16;;;-0.40;74.02
11268;BME280;49397;47.474;9.416;2023-02-12T02:02:20;97233.34;;;-0.48;74.13
11268;BME280;49397;47.474;9.416;2023-02-12T02:04:52;97251.38;;;-0.50;74.88
11268;BME280;49397;47.474;9.416;2023-02-12T02:07:19;97250.28;;;-0.55;75.24
11268;BME280;49397;47.474;9.416;2023-02-12T02:09:45;97257.09;;;-0.53;74.95
11268;BME280;49397;47.474;9.416;2023-02-12T02:12:11;97258.28;;;-0.55;75.05
11268;BME280;49397;47.474;9.416;2023-02-12T02:14:57;97262.47;;;-0.46;74.47
11268;BME280;49397;47.474;9.416;2023-02-12T02:22:43;97261.44;;;-0.45;72.87
11268;BME280;49397;47.474;9.416;2023-02-12T02:33:44;97245.31;;;-0.65;75.10
11268;BME280;49397;47.474;9.416;2023-02-12T02:36:36;97246.41;;;-0.59;75.39
11268;BME280;49397;47.474;9.416;2023-02-12T02:44:46;97240.00;;;-0.65;75.38
11268;BME280;49397;47.474;9.416;2023-02-12T02:47:14;97246.19;;;-0.58;74.92
11268;BME280;49397;47.474;9.416;2023-02-12T02:49:51;97236.75;;;-0.60;75.53
11268;BME280;49397;47.474;9.416;2023-02-12T02:52:24;97233.50;;;-0.56;76.91
11268;BME280;49397;47.474;9.416;2023-02-12T02:54:55;97228.97;;;-0.55;78.23
11268;BME280;49397;47.474;9.416;2023-02-12T02:57:35;97233.13;;;-0.46;77.71
11268;BME280;49397;47.474;9.416;2023-02-12T03:00:15;97230.72;;;-0.41;77.23
11268;BME280;49397;47.474;9.416;2023-02-12T03:02:48;97226.97;;;-0.47;77.42
11268;BME280;49397;47.474;9.416;2023-02-12T03:05:34;97225.78;;;-0.38;80.45
11268;BME280;49397;47.474;9.416;2023-02-12T03:08:14;97232.13;;;-0.39;81.93
11268;BME280;49397;47.474;9.416;2023-02-12T03:10:50;97234.19;;;-0.34;81.48
11268;BME280;49397;47.474;9.416;2023-02-12T03:16:12;97230.59;;;-0.14;84.08
11268;BME280;49397;47.474;9.416;2023-02-12T03:18:43;97243.53;;;-0.11;82.60
11268;BME280;49397;47.474;9.416;2023-02-12T03:21:17;97235.09;;;-0.14;83.75
11268;BME280;49397;47.474;9.416;2023-02-12T03:24:00;97229.56;;;-0.13;85.66
11268;BME280;49397;47.474;9.416;2023-02-12T03:26:51;97225.94;;;0.02;85.20
11268;BME280;49397;47.474;9.416;2023-02-12T03:29:19;97221.59;;;0.00;84.90
11268;BME280;49397;47.474;9.416;2023-02-12T03:37:18;97215.81;;;-0.16;84.10
11268;BME280;49397;47.474;9.416;2023-02-12T03:43:07;97212.00;;;0.13;92.86
11268;BME280;49397;47.474;9.416;2023-02-12T03:45:46;97206.25;;;0.16;92.46
11268;BME280;49397;47.474;9.416;2023-02-12T03:48:19;97213.19;;;0.03;92.24
11268;BME280;49397;47.474;9.416;2023-02-12T03:51:02;97216.25;;;0.00;91.92
11268;BME280;49397;47.474;9.416;2023-02-12T03:53:29;97206.84;;;-0.02;93.74
11268;BME280;49397;47.474;9.416;2023-02-12T03:56:02;97200.03;;;-0.05;95.44
11268;BME280;49397;47.474;9.416;2023-02-12T03:58:31;97204.97;;;-0.02;94.59
11268;BME280;49397;47.474;9.416;2023-02-12T04:00:59;97211.75;;;0.01;93.38
11268;BME280;49397;47.474;9.416;2023-02-12T04:03:24;97218.31;;;-0.02;94.61
11268;BME280;49397;47.474;9.416;2023-02-12T04:05:50;97232.47;;;-0.01;95.42
11268;BME280;49397;47.474;9.416;2023-02-12T04:08:16;97234.31;;;-0.02;97.84
11268;BME280;49397;47.474;9.416;2023-02-12T04:13:24;97221.22;;;0.10;99.89
11268;BME280;49397;47.474;9.416;2023-02-12T04:18:45;97239.69;;;0.12;100.00
11268;BME280;49397;47.474;9.416;2023-02-12T04:21:37;97242.56;;;0.10;98.24
11268;BME280;49397;47.474;9.416;2023-02-12T04:32:11;97244.97;;;-0.15;94.92
11268;BME280;49397;47.474;9.416;2023-02-12T04:37:17;97253.94;;;-0.29;93.67
11268;BME280;49397;47.474;9.416;2023-02-12T04:39:44;97258.66;;;-0.24;92.80
11268;BME280;49397;47.474;9.416;2023-02-12T04:42:11;97261.06;;;-0.36;92.96
11268;BME280;49397;47.474;9.416;2023-02-12T04:44:41;97264.13;;;-0.39;92.87
11268;BME280;49397;47.474;9.416;2023-02-12T04:47:11;97251.59;;;-0.45;92.13
11268;BME280;49397;47.474;9.416;2023-02-12T04:49:36;97262.28;;;-0.45;91.87
11268;BME280;49397;47.474;9.416;2023-02-12T04:52:02;97261.63;;;-0.47;91.66
11268;BME280;49397;47.474;9.416;2023-02-12T04:54:27;97277.38;;;-0.52;91.94
11268;BME280;49397;47.474;9.416;2023-02-12T04:56:53;97279.84;;;-0.50;91.05
11268;BME280;49397;47.474;9.416;2023-02-12T04:59:18;97275.50;;;-0.58;91.87
11268;BME280;49397;47.474;9.416;2023-02-12T05:01:44;97264.22;;;-0.60;91.74
11268;BME280;49397;47.474;9.416;2023-02-12T05:04:14;97268.72;;;-0.67;91.68
11268;BME280;49397;47.474;9.416;2023-02-12T05:06:41;97270.69;;;-0.75;91.90
11268;BME280;49397;47.474;9.416;2023-02-12T05:09:07;97260.19;;;-0.83;92.56
11268;BME280;49397;47.474;9.416;2023-02-12T05:11:34;97254.06;;;-0.84;92.49
11268;BME280;49397;47.474;9.416;2023-02-12T05:13:59;97261.06;;;-0.76;92.27
11268;BME280;49397;47.474;9.416;2023-02-12T05:16:25;97277.19;;;-0.84;92.32
11268;BME280;49397;47.474;9.416;2023-02-12T05:18:50;97276.75;;;-0.88;92.54
11268;BME280;49397;47.474;9.416;2023-02-12T05:21:16;97275.47;;;-0.98;93.00
11268;BME280;49397;47.474;9.416;2023-02-12T05:23:42;97266.00;;;-1.01;93.12
11268;BME280;49397;47.474;9.416;2023-02-12T05:26:12;97255.28;;;-1.07;92.65
11268;BME280;49397;47.474;9.416;2023-02-12T05:28:38;97261.47;;;-1.07;92.11
11268;BME280;49397;47.474;9.416;2023-02-12T05:31:07;97253.47;;;-1.07;91.91
11268;BME280;49397;47.474;9.416;2023-02-12T05:33:33;97255.97;;;-0.99;91.58
11268;BME280;49397;47.474;9.416;2023-02-12T05:36:06;97257.22;;;-1.01;89.96
11268;BME280;49397;47.474;9.416;2023-02-12T05:38:32;97249.22;;;-1.01;89.93
11268;BME280;49397;47.474;9.416;2023-02-12T05:41:14;97259.88;;;-1.01;90.00
11268;BME280;49397;47.474;9.416;2023-02-12T05:43:41;97252.50;;;-0.99;89.67
11268;BME280;49397;47.474;9.416;2023-02-12T05:46:07;97255.59;;;-0.96;89.48
11268;BME280;49397;47.474;9.416;2023-02-12T05:48:34;97248.59;;;-1.03;89.48
11268;BME280;49397;47.474;9.416;2023-02-12T05:51:11;97258.50;;;-0.91;89.18
11268;BME280;49397;47.474;9.416;2023-02-12T05:53:38;97256.66;;;-0.90;89.24
11268;BME280;49397;47.474;9.416;2023-02-12T05:56:16;97250.84;;;-1.00;89.83
11268;BME280;49397;47.474;9.416;2023-02-12T05:58:45;97242.56;;;-1.12;90.47
11268;BME280;49397;47.474;9.416;2023-02-12T06:01:19;97233.78;;;-1.12;90.84
11268;BME280;49397;47.474;9.416;2023-02-12T06:03:46;97237.25;;;-1.12;90.99
11268;BME280;49397;47.474;9.416;2023-02-12T06:06:11;97219.28;;;-1.31;91.82
11268;BME280;49397;47.474;9.416;2023-02-12T06:08:38;97227.75;;;-1.21;91.81
11268;BME280;49397;47.474;9.416;2023-02-12T06:11:06;97225.00;;;-1.06;91.49
11268;BME280;49397;47.474;9.416;2023-02-12T06:13:32;97218.88;;;-1.00;92.30
11268;BME280;49397;47.474;9.416;2023-02-12T06:15:58;97212.50;;;-1.06;92.64
11268;BME280;49397;47.474;9.416;2023-02-12T06:18:24;97222.34;;;-1.06;93.84
11268;BME280;49397;47.474;9.416;2023-02-12T06:20:50;97230.56;;;-1.01;92.77
11268;BME280;49397;47.474;9.416;2023-02-12T06:23:21;97223.97;;;-1.05;93.07
11268;BME280;49397;47.474;9.416;2023-02-12T06:25:48;97236.09;;;-1.03;93.28
11268;BME280;49397;47.474;9.416;2023-02-12T06:28:14;97231.41;;;-0.94;92.62
11268;BME280;49397;47.474;9.416;2023-02-12T06:30:40;97237.16;;;-0.97;92.48
11268;BME280;49397;47.474;9.416;2023-02-12T06:33:05;97240.06;;;-0.92;92.64
11268;BME280;49397;47.474;9.416;2023-02-12T06:35:34;97236.94;;;-0.96;92.43
11268;BME280;49397;47.474;9.416;2023-02-12T06:37:59;97239.84;;;-0.91;92.39
11268;BME280;49397;47.474;9.416;2023-02-12T06:40:25;97237.00;;;-0.89;92.14
11268;BME280;49397;47.474;9.416;2023-02-12T06:42:50;97238.22;;;-0.92;92.28
11268;BME280;49397;47.474;9.416;2023-02-12T06:45:16;97254.75;;;-0.96;92.65
11268;BME280;49397;47.474;9.416;2023-02-12T06:47:41;97246.63;;;-0.88;92.40
11268;BME280;49397;47.474;9.416;2023-02-12T06:50:07;97254.63;;;-0.88;91.93
11268;BME280;49397;47.474;9.416;2023-02-12T06:52:33;97250.31;;;-0.89;92.10
11268;BME280;49397;47.474;9.416;2023-02-12T06:54:58;97256.72;;;-0.84;92.56
11268;BME280;49397;47.474;9.416;2023-02-12T06:57:24;97248.47;;;-0.89;91.33
11268;BME280;49397;47.474;9.416;2023-02-12T06:59:49;97256.13;;;-0.79;91.85
11268;BME280;49397;47.474;9.416;2023-02-12T07:02:14;97257.56;;;-0.77;91.28
11268;BME280;49397;47.474;9.416;2023-02-12T07:04:40;97257.38;;;-0.75;91.15
11268;BME280;49397;47.474;9.416;2023-02-12T07:07:06;97253.91;;;-0.69;90.59
11268;BME280;49397;47.474;9.416;2023-02-12T07:09:31;97251.44;;;-0.71;89.95
11268;BME280;49397;47.474;9.416;2023-02-12T07:11:58;97250.44;;;-0.70;89.63
11268;BME280;49397;47.474;9.416;2023-02-12T07:14:24;97252.88;;;-0.75;89.99
11268;BME280;49397;47.474;9.416;2023-02-12T07:16:50;97240.88;;;-0.92;89.90
11268;BME280;49397;47.474;9.416;2023-02-12T07:19:16;97252.03;;;-0.75;89.32
11268;BME280;49397;47.474;9.416;2023-02-12T07:21:42;97251.69;;;-0.66;88.47
11268;BME280;49397;47.474;9.416;2023-02-12T07:24:09;97254.00;;;-0.56;88.58
11268;BME280;49397;47.474;9.416;2023-02-12T07:26:36;97250.56;;;-0.44;87.44
11268;BME280;49397;47.474;9.416;2023-02-12T07:29:02;97255.38;;;-0.26;86.58
11268;BME280;49397;47.474;9.416;2023-02-12T07:31:28;97252.72;;;-0.20;85.51
11268;BME280;49397;47.474;9.416;2023-02-12T07:33:56;97236.53;;;-0.18;85.32
11268;BME280;49397;47.474;9.416;2023-02-12T07:36:23;97243.16;;;-0.01;84.60
11268;BME280;49397;47.474;9.416;2023-02-12T07:38:49;97251.13;;;-0.08;85.18
11268;BME280;49397;47.474;9.416;2023-02-12T07:41:36;97259.13;;;-0.08;85.73
11268;BME280;49397;47.474;9.416;2023-02-12T07:44:05;97247.66;;;-0.08;84.95
11268;BME280;49397;47.474;9.416;2023-02-12T07:46:37;97259.84;;;0.27;84.35
11268;BME280;49397;47.474;9.416;2023-02-12T07:49:05;97264.19;;;0.28;83.58
11268;BME280;49397;47.474;9.416;2023-02-12T07:51:33;97271.75;;;0.25;84.01
11268;BME280;49397;47.474;9.416;2023-02-12T07:54:00;97265.38;;;0.26;84.39
11268;BME280;49397;47.474;9.416;2023-02-12T07:56:28;97267.25;;;0.25;83.81
11268;BME280;49397;47.474;9.416;2023-02-12T07:58:58;97261.72;;;0.40;83.32
11268;BME280;49397;47.474;9.416;2023-02-12T08:01:32;97258.84;;;0.41;83.18
11268;BME280;49397;47.474;9.416;2023-02-12T08:04:07;97261.34;;;0.56;82.91
11268;BME280;49397;47.474;9.416;2023-02-12T08:06:35;97260.94;;;0.72;82.23
11268;BME280;49397;47.474;9.416;2023-02-12T08:09:04;97260.53;;;0.81;81.15
11268;BME280;49397;47.474;9.416;2023-02-12T08:11:30;97257.03;;;0.81;81.83
11268;BME280;49397;47.474;9.416;2023-02-12T08:13:57;97250.06;;;0.99;81.50
11268;BME280;49397;47.474;9.416;2023-02-12T08:16:24;97264.22;;;1.13;81.44
11268;BME280;49397;47.474;9.416;2023-02-12T08:18:50;97264.63;;;1.29;81.07
11268;BME280;49397;47.474;9.416;2023-02-12T08:21:24;97262.09;;;1.54;81.66
11268;BME280;49397;47.474;9.416;2023-02-12T08:23:52;97264.06;;;1.85;80.39
11268;BME280;49397;47.474;9.416;2023-02-12T08:26:21;97258.28;;;1.88;80.60
11268;BME280;49397;47.474;9.416;2023-02-12T08:28:50;97249.59;;;1.99;80.66
11268;BME280;49397;47.474;9.416;2023-02-12T08:31:21;97251.00;;;2.01;80.42
11268;BME280;49397;47.474;9.416;2023-02-12T08:33:48;97245.53;;;2.27;79.67
11268;BME280;49397;47.474;9.416;2023-02-12T08:36:16;97253.81;;;2.19;81.30
11268;BME280;49397;47.474;9.416;2023-02-12T08:38:43;97247.84;;;2.17;82.53
11268;BME280;49397;47.474;9.416;2023-02-12T08:41:20;97245.28;;;2.35;82.35
11268;BME280;49397;47.474;9.416;2023-02-12T08:43:46;97250.22;;;2.38;84.31
11268;BME280;49397;47.474;9.416;2023-02-12T08:46:16;97243.28;;;2.55;83.79
11268;BME280;49397;47.474;9.416;2023-02-12T08:48:42;97253.28;;;2.73;82.78
11268;BME280;49397;47.474;9.416;2023-02-12T08:53:39;97245.00;;;2.99;80.60
11268;BME280;49397;47.474;9.416;2023-02-12T08:56:05;97242.84;;;3.32;79.10
11268;BME280;49397;47.474;9.416;2023-02-12T08:58:33;97238.47;;;3.38;77.91
11268;BME280;49397;47.474;9.416;2023-02-12T09:00:59;97243.50;;;3.52;77.13
11268;BME280;49397;47.474;9.416;2023-02-12T09:03:25;97238.56;;;3.49;76.40
11268;BME280;49397;47.474;9.416;2023-02-12T09:05:50;97236.72;;;3.68;75.15
11268;BME280;49397;47.474;9.416;2023-02-12T09:08:16;97231.31;;;3.86;74.28
11268;BME280;49397;47.474;9.416;2023-02-12T09:10:42;97216.66;;;3.88;74.63
11268;BME280;49397;47.474;9.416;2023-02-12T09:13:09;97223.94;;;3.99;73.21
11268;BME280;49397;47.474;9.416;2023-02-12T09:15:42;97213.13;;;4.06;74.18
11268;BME280;49397;47.474;9.416;2023-02-12T09:18:09;97209.13;;;4.26;71.30
11268;BME280;49397;47.474;9.416;2023-02-12T09:20:43;97205.19;;;4.40;69.59
11268;BME280;49397;47.474;9.416;2023-02-12T09:23:11;97206.41;;;4.56;68.71
11268;BME280;49397;47.474;9.416;2023-02-12T09:25:43;97201.19;;;4.73;68.36
11268;BME280;49397;47.474;9.416;2023-02-12T09:28:11;97192.53;;;4.82;66.41
11268;BME280;49397;47.474;9.416;2023-02-12T09:30:37;97201.06;;;4.79;64.70
11268;BME280;49397;47.474;9.416;2023-02-12T09:33:04;97207.47;;;4.55;67.62
11268;BME280;49397;47.474;9.416;2023-02-12T09:35:33;97207.25;;;4.68;68.47
11268;BME280;49397;47.474;9.416;2023-02-12T09:37:58;97199.44;;;5.01;67.76
11268;BME280;49397;47.474;9.416;2023-02-12T09:40:32;97203.59;;;5.15;66.70
11268;BME280;49397;47.474;9.416;2023-02-12T09:48:44;97198.41;;;5.02;64.79
11268;BME280;49397;47.474;9.416;2023-02-12T09:51:12;97192.22;;;5.13;65.20
11268;BME280;49397;47.474;9.416;2023-02-12T09:53:42;97186.38;;;5.16;63.78
11268;BME280;49397;47.474;9.416;2023-02-12T09:56:12;97200.88;;;5.50;62.49
11268;BME280;49397;47.474;9.416;2023-02-12T09:58:51;97207.53;;;5.70;62.33
11268;BME280;49397;47.474;9.416;2023-02-12T10:01:19;97199.78;;;5.85;62.15
11268;BME280;49397;47.474;9.416;2023-02-12T10:03:47;97198.28;;;6.18;61.77
11268;BME280;49397;47.474;9.416;2023-02-12T10:06:16;97195.47;;;6.41;60.41
11268;BME280;49397;47.474;9.416;2023-02-12T10:08:52;97197.84;;;6.37;59.17
11268;BME280;49397;47.474;9.416;2023-02-12T10:17:21;97186.22;;;9.18;51.71
11268;BME280;49397;47.474;9.416;2023-02-12T10:20:08;97171.47;;;8.20;53.85
11268;BME280;49397;47.474;9.416;2023-02-12T10:28:11;97191.31;;;7.65;53.61
11268;BME280;49397;47.474;9.416;2023-02-12T10:30:54;97192.03;;;7.23;53.00
11268;BME280;49397;47.474;9.416;2023-02-12T10:33:30;97192.31;;;7.43;53.67
11268;BME280;49397;47.474;9.416;2023-02-12T10:36:06;97192.97;;;7.50;52.19
11268;BME280;49397;47.474;9.416;2023-02-12T10:38:38;97189.94;;;7.85;51.82
11268;BME280;49397;47.474;9.416;2023-02-12T10:41:09;97189.25;;;7.94;50.88
11268;BME280;49397;47.474;9.416;2023-02-12T10:43:38;97183.34;;;7.97;50.43
11268;BME280;49397;47.474;9.416;2023-02-12T10:46:03;97176.00;;;7.71;51.89
11268;BME280;49397;47.474;9.416;2023-02-12T10:48:34;97159.38;;;7.24;50.72
11268;BME280;49397;47.474;9.416;2023-02-12T10:53:36;97165.75;;;7.73;51.06
11268;BME280;49397;47.474;9.416;2023-02-12T10:56:08;97158.97;;;8.14;51.15
11268;BME280;49397;47.474;9.416;2023-02-12T10:58:39;97156.38;;;8.24;51.89
11268;BME280;49397;47.474;9.416;2023-02-12T11:01:14;97147.28;;;8.30;49.50
11268;BME280;49397;47.474;9.416;2023-02-12T11:03:41;97147.00;;;8.10;49.31
11268;BME280;49397;47.474;9.416;2023-02-12T11:06:23;97146.25;;;8.36;49.43
11268;BME280;49397;47.474;9.416;2023-02-12T11:08:50;97147.13;;;8.20;48.17
11268;BME280;49397;47.474;9.416;2023-02-12T11:11:22;97141.66;;;8.15;47.40
11268;BME280;49397;47.474;9.416;2023-02-12T11:16:31;97129.31;;;8.77;49.68
11268;BME280;49397;47.474;9.416;2023-02-12T11:19:02;97129.25;;;8.40;46.07
11268;BME280;49397;47.474;9.416;2023-02-12T11:21:29;97122.72;;;8.15;46.99
11268;BME280;49397;47.474;9.416;2023-02-12T11:23:55;97122.44;;;8.38;48.49
11268;BME280;49397;47.474;9.416;2023-02-12T11:26:26;97116.59;;;8.46;47.68
11268;BME280;49397;47.474;9.416;2023-02-12T11:29:00;97117.88;;;8.70;47.97
11268;BME280;49397;47.474;9.416;2023-02-12T11:31:27;97121.25;;;8.82;46.23
11268;BME280;49397;47.474;9.416;2023-02-12T11:34:19;97115.84;;;8.82;46.95
11268;BME280;49397;47.474;9.416;2023-02-12T11:36:46;97114.22;;;9.23;47.51
11268;BME280;49397;47.474;9.416;2023-02-12T11:39:39;97118.72;;;9.49;45.17
11268;BME280;49397;47.474;9.416;2023-02-12T11:42:16;97107.53;;;9.35;44.37
11268;BME280;49397;47.474;9.416;2023-02-12T11:44:48;97117.28;;;9.36;46.37
11268;BME280;49397;47.474;9.416;2023-02-12T11:47:21;97113.13;;;9.65;44.47
11268;BME280;49397;47.474;9.416;2023-02-12T11:52:31;97106.50;;;9.46;45.23
11268;BME280;49397;47.474;9.416;2023-02-12T11:55:05;97105.84;;;9.24;45.92
11268;BME280;49397;47.474;9.416;2023-02-12T11:57:38;97107.25;;;9.32;44.62
11268;BME280;49397;47.474;9.416;2023-02-12T12:00:17;97108.00;;;9.69;43.94
11268;BME280;49397;47.474;9.416;2023-02-12T12:02:51;97106.47;;;9.98;44.77
11268;BME280;49397;47.474;9.416;2023-02-12T12:05:20;97088.56;;;9.92;43.66
11268;BME280;49397;47.474;9.416;2023-02-12T12:07:57;97103.06;;;10.22;43.81
11268;BME280;49397;47.474;9.416;2023-02-12T12:10:38;97107.69;;;10.42;44.20
11268;BME280;49397;47.474;9.416;2023-02-12T12:13:12;97106.88;;;10.31;43.79
11268;BME280;49397;47.474;9.416;2023-02-12T12:15:47;97095.19;;;10.26;44.12
11268;BME280;49397;47.474;9.416;2023-02-12T12:18:45;97096.00;;;10.26;44.22
11268;BME280;49397;47.474;9.416;2023-02-12T12:24:30;97096.84;;;10.47;43.82
11268;BME280;49397;47.474;9.416;2023-02-12T12:27:03;97088.72;;;10.57;44.12
11268;BME280;49397;47.474;9.416;2023-02-12T12:29:54;97080.56;;;10.42;43.62
11268;BME280;49397;47.474;9.416;2023-02-12T12:32:24;97072.41;;;10.27;43.72
11268;BME280;49397;47.474;9.416;2023-02-12T12:34:50;97074.31;;;10.26;43.97
11268;BME280;49397;47.474;9.416;2023-02-12T12:37:25;97068.59;;;10.13;45.33
11268;BME280;49397;47.474;9.416;2023-02-12T12:40:20;97079.47;;;10.18;45.83
11268;BME280;49397;47.474;9.416;2023-02-12T12:48:24;97069.56;;;9.87;48.96
11268;BME280;49397;47.474;9.416;2023-02-12T12:51:21;97069.25;;;9.73;50.41
11268;BME280;49397;47.474;9.416;2023-02-12T13:08:07;97069.00;;;9.85;54.75
11268;BME280;49397;47.474;9.416;2023-02-12T13:10:50;97055.47;;;9.80;56.15
11268;BME280;49397;47.474;9.416;2023-02-12T13:13:34;97056.03;;;9.92;55.71
11268;BME280;49397;47.474;9.416;2023-02-12T13:16:23;97050.28;;;9.83;56.12
11268;BME280;49397;47.474;9.416;2023-02-12T13:19:13;97052.25;;;9.98;56.20
11268;BME280;49397;47.474;9.416;2023-02-12T13:22:15;97048.47;;;9.99;56.28
11268;BME280;49397;47.474;9.416;2023-02-12T13:25:03;97051.41;;;9.87;56.61
11268;BME280;49397;47.474;9.416;2023-02-12T13:27:34;97040.28;;;9.89;56.49
11268;BME280;49397;47.474;9.416;2023-02-12T13:30:17;97036.72;;;9.73;57.38
11268;BME280;49397;47.474;9.416;2023-02-12T13:35:19;97038.63;;;9.73;57.76
11268;BME280;49397;47.474;9.416;2023-02-12T13:37:48;97035.59;;;9.64;57.52
11268;BME280;49397;47.474;9.416;2023-02-12T13:40:20;97031.31;;;9.73;58.01
11268;BME280;49397;47.474;9.416;2023-02-12T13:42:52;97025.34;;;9.71;57.59
11268;BME280;49397;47.474;9.416;2023-02-12T13:45:29;97034.59;;;9.85;57.93
11268;BME280;49397;47.474;9.416;2023-02-12T14:02:43;97041.41;;;10.03;55.96
11268;BME280;49397;47.474;9.416;2023-02-12T14:07:40;97036.03;;;10.08;56.74
11268;BME280;49397;47.474;9.416;2023-02-12T14:10:06;97037.41;;;10.15;57.07
11268;BME280;49397;47.474;9.416;2023-02-12T14:12:35;97031.19;;;10.35;57.68
11268;BME280;49397;47.474;9.416;2023-02-12T14:15:07;97031.44;;;10.43;57.28
11268;BME280;49397;47.474;9.416;2023-02-12T14:25:33;97030.34;;;11.00;56.10
11268;BME280;49397;47.474;9.416;2023-02-12T14:28:21;97025.69;;;11.10;56.48
11268;BME280;49397;47.474;9.416;2023-02-12T14:33:47;97032.56;;;11.76;54.59
11268;BME280;49397;47.474;9.416;2023-02-12T14:36:14;97026.50;;;11.94;55.32
11268;BME280;49397;47.474;9.416;2023-02-12T14:41:23;97031.91;;;11.99;53.78
11268;BME280;49397;47.474;9.416;2023-02-12T14:46:54;97022.75;;;12.63;52.86
11268;BME280;49397;47.474;9.416;2023-02-12T14:49:29;97025.91;;;12.75;53.09
11268;BME280;49397;47.474;9.416;2023-02-12T14:59:43;97014.25;;;12.98;50.95
11268;BME280;49397;47.474;9.416;2023-02-12T15:02:31;97015.41;;;13.20;50.52
11268;BME280;49397;47.474;9.416;2023-02-12T15:05:01;97018.50;;;13.37;50.67
11268;BME280;49397;47.474;9.416;2023-02-12T15:07:41;97023.50;;;13.54;49.57
11268;BME280;49397;47.474;9.416;2023-02-12T15:10:14;97023.09;;;13.42;50.44
11268;BME280;49397;47.474;9.416;2023-02-12T15:12:46;97018.72;;;13.41;51.41
11268;BME280;49397;47.474;9.416;2023-02-12T15:15:46;97020.09;;;13.43;50.69
11268;BME280;49397;47.474;9.416;2023-02-12T15:18:26;97015.38;;;13.25;50.45
11268;BME280;49397;47.474;9.416;2023-02-12T15:20:59;97008.47;;;13.33;51.96
11268;BME280;49397;47.474;9.416;2023-02-12T15:23:37;97005.88;;;13.23;51.49
11268;BME280;49397;47.474;9.416;2023-02-12T15:26:05;97007.63;;;13.09;51.74
11268;BME280;49397;47.474;9.416;2023-02-12T15:28:35;97004.41;;;12.73;53.40
11268;BME280;49397;47.474;9.416;2023-02-12T15:31:04;96985.13;;;12.65;53.14
11268;BME280;49397;47.474;9.416;2023-02-12T15:33:38;97001.66;;;12.78;52.57
11268;BME280;49397;47.474;9.416;2023-02-12T15:36:06;97010.41;;;12.42;53.18
11268;BME280;49397;47.474;9.416;2023-02-12T15:38:39;97002.88;;;12.23;54.88
11268;BME280;49397;47.474;9.416;2023-02-12T15:41:23;97006.16;;;12.26;54.29
11268;BME280;49397;47.474;9.416;2023-02-12T15:43:49;96997.84;;;12.07;55.23
11268;BME280;49397;47.474;9.416;2023-02-12T15:46:16;97001.25;;;12.28;54.26